Startpagina
METAR-TAF:

METAR-TAF

Vliegvelden :

Karachi, Pakistan

breedte: 24-54N, lengte: 067-08E, hoogte: 21 m

Actueel weer

Dit bericht is 35 minuten geleden gemaakt, om 03:55 UTC
Wind 9 kt uit het noordnoordoosten
Temperatuur 17°C
Vochtigheid 48%
Druk 1020 hPa
Zicht: 2500 m
rook

METAR: OPKC 140355Z 03009KT 2500 FU NSC 17/06 Q1020 NOSIG

Tijdstip: 09:30 (04:30 UTC)

Verwachting

Dit bericht is 7 uur en het 0 minuten geleden gemaakt, om 21:30 UTC
Verwachting geldig van 14 om 00 UTC tot 15 om 06 UTC
Wind 8 kt uit het noordoosten met uitschieters tot 18 kt
Zicht: 6000 m
Tijdelijke
van 14 om 00 UTC tot 14 om 04 UTC
Wind 6 kt uit het noordnoordoosten
Zicht: 4000 m
Heiigheid
Wijzigt naar
van 14 om 20 UTC tot 14 om 22 UTC
Wind 8 kt uit het oostnoordoosten
Zicht: 4000 m
Heiigheid

TAF: OPKC 132130Z 1400/1506 05008G18KT 6000 NSC TEMPO 1400/1404 03006KT 4000 HZ NSC BECMG 1420/1422 07008KT 4000 HZ NSC

Waarnemingen en weersverwachtingen van meer dan 4000 vliegvelden (METAR en TAF).

De beschikbare stations zijn de gele en rode punten op de kaart.

Ga met uw muis naar het station om de naam te zien.

Klik dan om waarnemingen en weersverwachtingen te zien.

kaart wijzigen: klik op de groene knoppen met een zwart kruis om in te zoomen, op de groene knop met een streepje om uit te zoomen of op de groene pijlen voor aangrenzende kaarten.


METAR-TAF: